Search for airport 
image banner adimage banner adimage banner ad
image banner ad

1PS0 - Ickes

Located in Osterburg, United States

ICAO - 1PS0, IATA -

Data provided by Airmate  

General information

Coordinates: N40°11'3" W78°33'32"
Elevation is 1320 feet MSL.
Magnetic variation is -10° East
View others Airports in Pennsylvania

Operational data

Special qualification required
Current time UTC:
Current local time:
Weather at : KHMZ - Bedford County ( 12 km )
METAR: KHMZ 150615Z AUTO 00000KT 1/4SM FG OVC002 13/13 A2986 RMK AO2 T01300125
View NOTAMs / SUP AIP / TFR affecting this airport [VIEW]
Communications frequencies: [VIEW]

Runways:

RWY identifierQFULength (ft)Width (ft)SurfaceLDA (ft)
102064150GRASS
282064150GRASS

Airport contact information

Address: Osterburg United States

Satellite view of 1PS0